createdAt,value
2018-08-22T00:00:44.235Z,12.66
2018-08-22T00:03:08.298Z,12.75
2018-08-22T00:04:08.256Z,12.65
2018-08-22T00:05:15.771Z,12.70
2018-08-22T00:06:08.227Z,12.78
2018-08-22T00:07:08.208Z,12.73
2018-08-22T00:08:08.234Z,12.76
2018-08-22T00:09:08.203Z,12.83
2018-08-22T00:10:08.183Z,12.83
2018-08-22T00:11:15.819Z,12.76
2018-08-22T00:12:08.162Z,12.83
2018-08-22T00:13:08.175Z,12.86
2018-08-22T00:16:11.370Z,12.86
2018-08-22T00:18:41.434Z,12.86
2018-08-22T00:21:29.382Z,12.91
2018-08-22T00:22:40.433Z,12.83
2018-08-22T00:23:29.325Z,12.94
2018-08-22T00:24:29.328Z,12.84
2018-08-22T00:26:50.222Z,12.93
2018-08-22T00:27:50.180Z,12.86
2018-08-22T00:30:50.440Z,12.88
2018-08-22T00:33:57.388Z,12.72
2018-08-22T00:35:46.450Z,12.68
2018-08-22T00:36:46.440Z,12.72
2018-08-22T00:37:59.880Z,12.66
2018-08-22T00:38:46.383Z,12.73
2018-08-22T00:39:46.374Z,12.76
2018-08-22T00:40:59.966Z,12.86
2018-08-22T00:41:46.432Z,12.86
2018-08-22T00:42:46.351Z,12.76
2018-08-22T00:44:02.022Z,12.86
2018-08-22T00:44:46.328Z,12.83
2018-08-22T00:45:46.312Z,12.90
2018-08-22T00:46:57.587Z,12.86
2018-08-22T00:47:46.291Z,13.03
2018-08-22T00:48:46.282Z,13.06
2018-08-22T00:50:00.615Z,13.08
2018-08-22T00:50:46.253Z,13.08
2018-08-22T00:51:46.290Z,13.08
2018-08-22T00:52:56.174Z,13.12
2018-08-22T00:53:46.223Z,13.12
2018-08-22T00:54:46.215Z,13.19
2018-08-22T00:55:56.676Z,13.12
2018-08-22T00:56:46.235Z,13.12
2018-08-22T00:57:46.186Z,13.08
2018-08-22T00:58:56.210Z,13.09
2018-08-22T00:59:46.212Z,13.12
2018-08-22T01:00:46.145Z,13.21
2018-08-22T01:01:57.768Z,13.23
2018-08-22T01:02:46.111Z,13.17
2018-08-22T01:03:46.106Z,13.23
2018-08-22T01:04:54.263Z,13.23
2018-08-22T01:05:46.094Z,13.13
2018-08-22T01:06:46.066Z,13.21
2018-08-22T01:07:55.348Z,13.23
2018-08-22T01:08:46.046Z,13.27
2018-08-22T01:09:46.036Z,13.23
2018-08-22T01:10:54.852Z,13.27
2018-08-22T01:11:46.072Z,13.21
2018-08-22T01:12:46.004Z,13.11
2018-08-22T01:13:53.870Z,13.06
2018-08-22T01:14:45.980Z,13.11
2018-08-22T01:15:45.972Z,13.02
2018-08-22T01:16:56.418Z,12.95
2018-08-22T01:17:45.963Z,13.09
2018-08-22T01:18:45.975Z,13.02
2018-08-22T01:19:54.941Z,12.99
2018-08-22T01:20:45.925Z,13.03
2018-08-22T01:21:45.907Z,12.98
2018-08-22T01:22:55.013Z,12.99
2018-08-22T01:23:45.887Z,12.98
2018-08-22T01:24:45.877Z,12.99
2018-08-22T01:25:54.507Z,12.99
2018-08-22T01:26:45.868Z,12.94
2018-08-22T01:27:45.897Z,12.94
2018-08-22T01:30:41.384Z,13.05
2018-08-22T01:31:48.828Z,13.03
2018-08-22T01:32:41.293Z,13.02
2018-08-22T01:33:41.316Z,13.03
2018-08-22T01:34:50.898Z,13.01
2018-08-22T01:35:41.262Z,13.05
2018-08-22T01:36:41.244Z,13.03
2018-08-22T01:37:48.902Z,13.05
2018-08-22T01:38:41.218Z,13.06
2018-08-22T01:39:41.244Z,13.02
2018-08-22T01:40:48.926Z,13.01
2018-08-22T01:41:41.198Z,12.98
2018-08-22T01:42:41.212Z,12.99
2018-08-22T01:43:41.164Z,12.95
2018-08-22T01:44:41.192Z,12.93
2018-08-22T01:45:41.138Z,12.87
2018-08-22T01:46:48.958Z,12.93
2018-08-22T01:47:41.120Z,12.84
2018-08-22T01:48:41.104Z,12.88
2018-08-22T01:49:50.529Z,12.87
2018-08-22T01:50:41.095Z,12.86
2018-08-22T01:51:41.081Z,12.84
2018-08-22T01:52:41.084Z,12.78
2018-08-22T01:53:41.059Z,12.83
2018-08-22T01:54:41.081Z,12.81
2018-08-22T01:55:41.047Z,12.80
2018-08-22T01:56:41.027Z,12.80
2018-08-22T01:57:41.027Z,12.72
2018-08-22T01:58:48.582Z,12.78
2018-08-22T01:59:41.021Z,12.81
2018-08-22T02:00:41.017Z,12.78
2018-08-22T02:01:40.974Z,12.80
2018-08-22T02:02:40.959Z,12.78
2018-08-22T02:03:40.949Z,12.78
2018-08-22T02:04:48.572Z,12.80
2018-08-22T02:05:40.968Z,12.69
2018-08-22T02:06:40.919Z,12.80
2018-08-22T02:07:40.940Z,12.76
2018-08-22T02:08:40.889Z,12.73
2018-08-22T02:09:40.885Z,12.69
2018-08-22T02:10:40.918Z,12.65
2018-08-22T02:11:40.861Z,12.70
2018-08-22T02:12:40.847Z,12.63
2018-08-22T02:13:40.828Z,12.73
2018-08-22T02:14:40.863Z,12.72
2018-08-22T02:15:40.824Z,12.72
2018-08-22T02:16:40.803Z,12.68
2018-08-22T02:17:40.778Z,12.66
2018-08-22T02:18:40.764Z,12.68
2018-08-22T02:19:40.780Z,12.68
2018-08-22T02:20:40.750Z,12.65
2018-08-22T02:21:40.752Z,12.58
2018-08-22T02:22:40.761Z,12.55
2018-08-22T02:23:40.712Z,12.61
2018-08-22T02:24:40.746Z,12.61
2018-08-22T02:25:40.686Z,12.61
2018-08-22T02:26:40.676Z,12.66
2018-08-22T02:27:40.675Z,12.53
2018-08-22T02:28:40.674Z,12.51
2018-08-22T02:29:40.694Z,12.47
2018-08-22T02:30:40.626Z,12.50
2018-08-22T02:31:40.623Z,12.48
2018-08-22T02:32:40.623Z,12.51
2018-08-22T02:33:40.606Z,12.39
2018-08-22T02:34:40.644Z,12.37
2018-08-22T02:35:40.589Z,12.26
2018-08-22T02:36:40.574Z,12.29
2018-08-22T02:39:37.486Z,12.33
2018-08-22T02:42:05.443Z,12.30
2018-08-22T02:43:05.394Z,12.26
2018-08-22T02:44:05.422Z,12.23
2018-08-22T02:45:05.383Z,12.32
2018-08-22T02:46:05.352Z,12.17
2018-08-22T02:47:13.964Z,12.32
2018-08-22T02:48:05.349Z,12.30
2018-08-22T02:49:05.371Z,12.32
2018-08-22T02:50:14.006Z,12.21
2018-08-22T02:51:05.290Z,12.18
2018-08-22T02:52:05.272Z,12.20
2018-08-22T02:53:13.022Z,12.18
2018-08-22T02:54:05.300Z,12.21
2018-08-22T02:55:05.248Z,12.21
2018-08-22T02:56:19.100Z,12.14
2018-08-22T02:57:05.216Z,12.10
2018-08-22T02:58:05.229Z,12.08
2018-08-22T02:59:16.154Z,12.10
2018-08-22T03:00:05.192Z,12.07
2018-08-22T03:01:05.194Z,12.08
2018-08-22T03:02:14.664Z,12.12
2018-08-22T03:03:05.158Z,12.12
2018-08-22T03:04:05.134Z,12.12
2018-08-22T03:05:14.256Z,12.12
2018-08-22T03:06:05.134Z,12.11
2018-08-22T03:07:05.124Z,12.11
2018-08-22T03:08:13.754Z,12.14
2018-08-22T03:09:05.092Z,12.21
2018-08-22T03:10:05.130Z,12.15
2018-08-22T03:11:14.780Z,12.15
2018-08-22T03:12:05.083Z,12.18
2018-08-22T03:13:05.081Z,12.21
2018-08-22T03:14:15.319Z,12.20
2018-08-22T03:15:05.032Z,12.23
2018-08-22T03:16:05.020Z,12.18
2018-08-22T03:17:12.845Z,12.18
2018-08-22T03:18:05.040Z,12.17
2018-08-22T03:19:04.992Z,12.21
2018-08-22T03:20:15.388Z,12.25
2018-08-22T03:21:04.962Z,12.18
2018-08-22T03:22:04.963Z,12.20
2018-08-22T03:23:16.460Z,12.26
2018-08-22T03:24:04.933Z,12.17
2018-08-22T03:25:04.935Z,12.21
2018-08-22T03:26:16.551Z,12.21
2018-08-22T03:27:04.927Z,12.26
2018-08-22T03:28:04.906Z,12.33
2018-08-22T03:29:04.872Z,12.30
2018-08-22T03:30:04.864Z,12.20
2018-08-22T03:31:04.838Z,12.32
2018-08-22T03:34:08.423Z,12.32
2018-08-22T03:35:08.418Z,12.35
2018-08-22T03:36:08.386Z,12.35
2018-08-22T03:37:08.361Z,12.36
2018-08-22T03:38:23.427Z,12.35
2018-08-22T03:39:08.343Z,12.36
2018-08-22T03:40:08.379Z,12.35
2018-08-22T03:41:15.960Z,12.28
2018-08-22T03:42:08.315Z,12.25
2018-08-22T03:43:08.311Z,12.18
2018-08-22T03:45:32.524Z,12.26
2018-08-22T03:46:32.433Z,12.23
2018-08-22T03:47:32.431Z,12.25
2018-08-22T03:48:32.444Z,12.30
2018-08-22T03:49:40.885Z,12.26
2018-08-22T03:50:32.457Z,12.33
2018-08-22T03:51:32.377Z,12.32
2018-08-22T03:52:39.911Z,12.35
2018-08-22T03:53:32.385Z,12.35
2018-08-22T03:54:32.379Z,12.37
2018-08-22T03:58:39.452Z,12.25
2018-08-22T03:59:39.429Z,12.30
2018-08-22T04:00:39.387Z,12.18
2018-08-22T04:01:48.940Z,12.21
2018-08-22T04:02:39.366Z,12.30
2018-08-22T04:03:39.384Z,12.23
2018-08-22T04:04:54.517Z,12.32
2018-08-22T04:05:39.327Z,12.25
2018-08-22T04:06:39.329Z,12.21
2018-08-22T04:09:02.956Z,12.20
2018-08-22T04:10:02.922Z,12.23
2018-08-22T04:11:02.905Z,12.21
2018-08-22T04:12:02.935Z,12.20
2018-08-22T04:13:02.887Z,12.21
2018-08-22T04:14:02.877Z,12.18
2018-08-22T04:15:02.867Z,12.17
2018-08-22T04:18:23.481Z,12.17
2018-08-22T04:19:32.188Z,12.26
2018-08-22T04:20:23.434Z,12.20
2018-08-22T04:21:23.444Z,12.32
2018-08-22T04:25:15.537Z,12.18
2018-08-22T04:26:15.495Z,12.29
2018-08-22T04:27:15.497Z,12.30
2018-08-22T04:30:17.498Z,12.33
2018-08-22T04:31:17.449Z,12.44
2018-08-22T04:32:17.481Z,12.26
2018-08-22T04:33:17.443Z,12.40
2018-08-22T04:34:32.069Z,12.44
2018-08-22T04:35:17.413Z,12.26
2018-08-22T04:36:17.405Z,12.37
2018-08-22T04:37:26.603Z,12.36
2018-08-22T04:38:17.375Z,12.37
2018-08-22T04:39:17.408Z,12.40
2018-08-22T04:40:17.365Z,12.39
2018-08-22T04:41:17.340Z,12.47
2018-08-22T04:42:17.331Z,12.39
2018-08-22T04:43:26.607Z,12.44
2018-08-22T04:44:17.304Z,12.39
2018-08-22T04:45:17.297Z,12.51
2018-08-22T04:46:17.288Z,12.39
2018-08-22T04:47:17.271Z,12.37
2018-08-22T04:48:17.339Z,12.45
2018-08-22T04:49:17.295Z,12.40
2018-08-22T04:50:17.239Z,12.54
2018-08-22T04:51:17.229Z,12.53
2018-08-22T04:52:17.225Z,12.51
2018-08-22T04:53:17.205Z,12.61
2018-08-22T04:54:17.235Z,12.61
2018-08-22T04:55:17.228Z,12.62
2018-08-22T04:56:17.170Z,12.61
2018-08-22T04:57:17.163Z,12.69
2018-08-22T04:58:17.137Z,12.70
2018-08-22T04:59:17.155Z,12.73
2018-08-22T05:00:17.125Z,12.78
2018-08-22T05:01:17.118Z,12.81
2018-08-22T05:02:17.098Z,12.88
2018-08-22T05:03:17.090Z,12.90
2018-08-22T05:04:17.099Z,12.99
2018-08-22T05:05:17.078Z,13.05
2018-08-22T05:06:17.056Z,13.05
2018-08-22T05:07:24.603Z,13.17
2018-08-22T05:08:17.033Z,13.20
2018-08-22T05:09:17.058Z,13.21
2018-08-22T05:10:17.011Z,13.33
2018-08-22T05:11:16.995Z,13.27
2018-08-22T05:12:16.993Z,13.33
2018-08-22T05:13:16.981Z,13.31
2018-08-22T05:14:16.992Z,13.30
2018-08-22T05:15:16.985Z,13.45
2018-08-22T05:16:16.947Z,13.49
2018-08-22T05:17:16.924Z,13.50
2018-08-22T05:18:16.919Z,13.58
2018-08-22T05:19:26.197Z,13.54
2018-08-22T05:20:16.891Z,13.68
2018-08-22T05:21:16.890Z,13.68
2018-08-22T05:22:16.898Z,13.73
2018-08-22T05:23:16.860Z,13.71
2018-08-22T05:24:16.848Z,13.80
2018-08-22T05:25:26.215Z,13.79
2018-08-22T05:26:16.922Z,13.79
2018-08-22T05:27:16.823Z,13.85
2018-08-22T05:28:16.835Z,13.95
2018-08-22T05:29:16.811Z,13.98
2018-08-22T05:30:16.972Z,14.11
2018-08-22T05:31:16.777Z,14.08
2018-08-22T05:32:16.799Z,14.16
2018-08-22T05:33:16.773Z,14.08
2018-08-22T05:34:24.722Z,14.19
2018-08-22T05:35:16.733Z,14.16
2018-08-22T05:36:16.797Z,14.25
2018-08-22T05:37:16.711Z,14.40
2018-08-22T05:38:16.705Z,14.36
2018-08-22T05:39:16.719Z,14.34
2018-08-22T05:40:16.678Z,14.48
2018-08-22T05:41:16.714Z,14.44
2018-08-22T05:42:16.655Z,14.53
2018-08-22T05:43:16.641Z,14.55
2018-08-22T05:44:16.646Z,14.66
2018-08-22T05:45:16.625Z,14.66
2018-08-22T05:46:16.661Z,14.78
2018-08-22T05:47:16.600Z,14.74
2018-08-22T05:48:16.621Z,14.87
2018-08-22T05:49:24.261Z,14.92
2018-08-22T05:50:16.569Z,14.89
2018-08-22T05:51:16.557Z,14.96
2018-08-22T05:52:25.796Z,15.10
2018-08-22T05:53:16.522Z,14.97
2018-08-22T05:54:16.517Z,15.12
2018-08-22T05:55:24.301Z,15.14
2018-08-22T05:56:16.486Z,15.10
2018-08-22T05:57:16.506Z,15.22
2018-08-22T05:58:25.895Z,15.25
2018-08-22T05:59:16.450Z,15.23
2018-08-22T06:00:16.465Z,15.23
2018-08-22T06:01:16.458Z,15.29
2018-08-22T06:02:16.435Z,15.36
2018-08-22T06:03:16.451Z,15.33
2018-08-22T06:04:16.456Z,15.37
2018-08-22T06:05:16.398Z,15.41
2018-08-22T06:06:16.385Z,15.48
2018-08-22T06:07:16.371Z,15.39
2018-08-22T06:08:16.372Z,15.51
2018-08-22T06:09:16.460Z,15.51
2018-08-22T06:10:23.875Z,15.60
2018-08-22T06:11:16.330Z,15.67
2018-08-22T06:12:16.318Z,15.60
2018-08-22T06:13:16.319Z,15.66
2018-08-22T06:14:16.325Z,15.80
2018-08-22T06:15:16.285Z,16.17
2018-08-22T06:16:16.308Z,16.79
2018-08-22T06:17:16.254Z,17.38
2018-08-22T06:18:16.266Z,17.94
2018-08-22T06:19:23.916Z,18.37
2018-08-22T06:20:16.219Z,18.73
2018-08-22T06:21:16.248Z,19.01
2018-08-22T06:22:16.195Z,19.15
2018-08-22T06:23:16.201Z,19.27
2018-08-22T06:24:16.243Z,19.44
2018-08-22T06:25:24.219Z,19.56
2018-08-22T06:26:16.166Z,19.84
2018-08-22T06:27:16.181Z,20.21
2018-08-22T06:28:16.143Z,20.24
2018-08-22T06:29:16.153Z,20.19
2018-08-22T06:30:16.104Z,20.30
2018-08-22T06:31:16.104Z,20.40
2018-08-22T06:32:16.123Z,20.33
2018-08-22T06:33:16.088Z,20.14
2018-08-22T06:34:25.509Z,20.59
2018-08-22T06:35:16.075Z,20.55
2018-08-22T06:36:16.098Z,20.85
2018-08-22T06:37:24.029Z,20.89
2018-08-22T06:38:16.015Z,20.88
2018-08-22T06:39:16.132Z,20.89
2018-08-22T06:40:25.086Z,21.10
2018-08-22T06:41:15.995Z,21.25
2018-08-22T06:42:15.989Z,21.43
2018-08-22T06:43:23.595Z,21.74
2018-08-22T06:44:15.969Z,21.80
2018-08-22T06:45:16.007Z,21.62
2018-08-22T06:47:40.112Z,22.30
2018-08-22T06:48:40.053Z,22.22
2018-08-22T06:49:48.026Z,22.58
2018-08-22T06:50:40.031Z,22.40
2018-08-22T06:51:40.016Z,22.59
2018-08-22T06:52:40.069Z,22.80
2018-08-22T06:53:40.014Z,22.55
2018-08-22T06:54:39.982Z,22.55
2018-08-22T06:55:40.034Z,22.63
2018-08-22T06:56:39.988Z,22.73
2018-08-22T06:57:39.976Z,23.20
2018-08-22T06:58:48.564Z,23.58
2018-08-22T06:59:39.928Z,23.49
2018-08-22T07:00:39.974Z,23.47
2018-08-22T07:01:47.615Z,23.06
2018-08-22T07:02:39.898Z,23.20
2018-08-22T07:03:39.887Z,23.13
2018-08-22T07:04:39.884Z,23.07
2018-08-22T07:05:39.903Z,23.10
2018-08-22T07:06:39.843Z,23.25
2018-08-22T07:07:52.159Z,23.67
2018-08-22T07:08:39.828Z,23.42
2018-08-22T07:09:39.811Z,23.42
2018-08-22T07:10:39.831Z,23.56
2018-08-22T07:11:39.853Z,23.82
2018-08-22T07:12:39.785Z,23.81
2018-08-22T07:13:39.775Z,24.03
2018-08-22T07:14:39.762Z,24.00
2018-08-22T07:15:39.743Z,24.14
2018-08-22T07:16:39.763Z,23.84
2018-08-22T07:17:39.729Z,23.88
2018-08-22T07:18:39.735Z,24.18
2018-08-22T07:19:39.711Z,24.44
2018-08-22T07:20:39.689Z,24.14
2018-08-22T07:21:39.703Z,24.25
2018-08-22T07:22:39.709Z,23.91
2018-08-22T07:23:39.667Z,23.17
2018-08-22T07:24:39.663Z,22.76
2018-08-22T07:25:39.639Z,22.56
2018-08-22T07:26:39.761Z,22.36
2018-08-22T07:27:39.637Z,22.01
2018-08-22T07:28:39.647Z,21.81
2018-08-22T07:29:39.606Z,21.96
2018-08-22T07:30:39.584Z,22.10
2018-08-22T07:31:39.625Z,21.58
2018-08-22T07:32:39.573Z,21.22
2018-08-22T07:33:39.557Z,20.86
2018-08-22T07:34:39.542Z,20.70
2018-08-22T07:35:39.562Z,20.49
2018-08-22T07:36:39.511Z,20.39
2018-08-22T07:39:23.043Z,20.67
2018-08-22T07:39:55.244Z,20.70
2018-08-22T07:40:55.219Z,20.75
2018-08-22T07:41:55.249Z,20.78
2018-08-22T07:42:55.227Z,20.92
2018-08-22T07:43:55.211Z,20.96
2018-08-22T07:44:55.187Z,21.14
2018-08-22T07:46:03.003Z,21.23
2018-08-22T07:46:55.147Z,21.51
2018-08-22T07:47:55.139Z,21.41
2018-08-22T07:49:04.555Z,21.13
2018-08-22T07:49:55.119Z,21.07
2018-08-22T07:50:55.138Z,20.92
2018-08-22T07:52:03.079Z,20.75
2018-08-22T07:52:55.085Z,20.82
2018-08-22T07:53:55.102Z,20.82
2018-08-22T07:55:02.597Z,20.92
2018-08-22T07:55:55.053Z,21.10
2018-08-22T07:56:55.037Z,20.98
2018-08-22T07:58:04.160Z,20.98
2018-08-22T07:58:55.015Z,21.03
2018-08-22T07:59:54.995Z,21.11
2018-08-22T08:01:04.199Z,21.11
2018-08-22T08:01:55.042Z,21.20
2018-08-22T08:02:54.965Z,21.22
2018-08-22T08:03:54.949Z,21.10
2018-08-22T08:04:54.980Z,21.11
2018-08-22T08:05:54.966Z,21.17
2018-08-22T08:07:02.732Z,21.15
2018-08-22T08:07:54.913Z,21.22
2018-08-22T08:08:54.927Z,21.28
2018-08-22T08:10:04.266Z,21.28
2018-08-22T08:10:54.897Z,21.29
2018-08-22T08:11:54.897Z,21.28
2018-08-22T08:13:02.795Z,21.29
2018-08-22T08:13:54.842Z,21.26
2018-08-22T08:14:54.828Z,21.29
2018-08-22T08:16:01.909Z,21.23
2018-08-22T08:16:54.815Z,21.26
2018-08-22T08:17:54.804Z,21.25
2018-08-22T08:19:01.844Z,21.37
2018-08-22T08:19:54.781Z,21.50
2018-08-22T08:20:54.801Z,21.51
2018-08-22T08:22:02.871Z,21.63
2018-08-22T08:22:54.760Z,21.72
2018-08-22T08:23:54.744Z,21.83
2018-08-22T08:25:03.945Z,21.91
2018-08-22T08:25:54.719Z,21.84
2018-08-22T08:26:54.705Z,21.83
2018-08-22T08:28:04.973Z,21.77
2018-08-22T08:28:54.720Z,21.83
2018-08-22T08:29:54.664Z,21.94
2018-08-22T08:31:02.479Z,21.94
2018-08-22T08:31:54.646Z,22.10
2018-08-22T08:32:54.651Z,22.30
2018-08-22T08:34:02.514Z,22.26
2018-08-22T08:34:54.642Z,22.41
2018-08-22T08:35:54.630Z,22.41
2018-08-22T08:36:54.578Z,22.25
2018-08-22T08:37:54.621Z,22.26
2018-08-22T08:38:54.578Z,22.23
2018-08-22T08:39:54.550Z,22.28
2018-08-22T08:40:54.544Z,22.34
2018-08-22T08:41:54.527Z,22.34
2018-08-22T08:42:54.553Z,22.37
2018-08-22T08:43:54.507Z,22.49
2018-08-22T08:44:54.546Z,22.52
2018-08-22T08:46:03.537Z,22.76
2018-08-22T08:46:54.478Z,23.13
2018-08-22T08:47:54.463Z,23.47
2018-08-22T08:49:02.598Z,23.67
2018-08-22T08:49:54.481Z,23.67
2018-08-22T08:50:54.431Z,23.54
2018-08-22T08:52:02.117Z,23.51
2018-08-22T08:52:54.426Z,23.73
2018-08-22T08:53:54.391Z,23.64
2018-08-22T08:54:54.435Z,23.37
2018-08-22T08:55:54.393Z,23.34
2018-08-22T08:56:54.364Z,23.26
2018-08-22T08:58:02.279Z,23.37
2018-08-22T08:58:54.345Z,23.45
2018-08-22T08:59:54.365Z,23.39
2018-08-22T09:00:54.313Z,23.28
2018-08-22T09:01:54.307Z,23.23
2018-08-22T09:02:54.293Z,23.20
2018-08-22T09:04:02.292Z,23.29
2018-08-22T09:04:54.300Z,23.42
2018-08-22T09:05:54.256Z,23.42
2018-08-22T09:06:54.247Z,23.37
2018-08-22T09:07:54.232Z,23.37
2018-08-22T09:08:54.230Z,23.58
2018-08-22T09:09:54.247Z,23.58
2018-08-22T09:10:54.197Z,23.56
2018-08-22T09:11:54.184Z,23.69
2018-08-22T09:12:54.179Z,23.77
2018-08-22T09:13:54.160Z,24.01
2018-08-22T09:15:54.234Z,24.14
2018-08-22T09:16:54.138Z,24.31
2018-08-22T09:17:54.121Z,24.53
2018-08-22T09:18:54.108Z,24.79
2018-08-22T09:19:54.141Z,25.24
2018-08-22T09:20:54.098Z,25.36
2018-08-22T09:21:54.084Z,25.88
2018-08-22T09:22:54.068Z,26.55
2018-08-22T09:23:54.073Z,27.35
2018-08-22T09:24:54.108Z,28.18
2018-08-22T09:25:54.034Z,29.00
2018-08-22T09:26:54.073Z,29.69
2018-08-22T09:27:54.010Z,30.35
2018-08-22T09:28:53.996Z,30.54
2018-08-22T09:29:54.059Z,30.86
2018-08-22T09:30:54.040Z,30.88
2018-08-22T09:31:54.015Z,30.71
2018-08-22T09:32:53.995Z,30.74
2018-08-22T09:33:53.951Z,30.85
2018-08-22T09:34:53.946Z,31.25
2018-08-22T09:35:53.933Z,31.15
2018-08-22T09:37:03.250Z,31.20
2018-08-22T09:37:53.899Z,31.29
2018-08-22T09:38:53.896Z,30.74
2018-08-22T09:39:53.936Z,31.04
2018-08-22T09:40:53.879Z,31.37
2018-08-22T09:41:53.891Z,31.90
2018-08-22T09:43:03.296Z,31.85
2018-08-22T09:43:53.845Z,31.82
2018-08-22T09:44:53.829Z,31.73
2018-08-22T09:45:53.821Z,31.85
2018-08-22T09:46:53.809Z,31.85
2018-08-22T09:47:53.841Z,31.74
2018-08-22T09:48:53.784Z,31.15
2018-08-22T09:49:53.790Z,30.99
2018-08-22T09:50:53.844Z,31.62
2018-08-22T09:51:53.753Z,31.50
2018-08-22T09:52:53.796Z,31.15
2018-08-22T09:53:53.746Z,31.85
2018-08-22T09:54:53.755Z,31.86
2018-08-22T09:55:53.723Z,31.85
2018-08-22T09:56:53.763Z,31.77
2018-08-22T09:57:53.791Z,32.12
2018-08-22T09:58:53.702Z,31.29
2018-08-22T09:59:53.680Z,31.66
2018-08-22T10:00:53.667Z,32.11
2018-08-22T10:01:53.712Z,32.61
2018-08-22T10:02:53.668Z,32.39
2018-08-22T10:03:53.682Z,32.51
2018-08-22T10:04:53.615Z,32.78
2018-08-22T10:05:53.600Z,32.51
2018-08-22T10:06:53.716Z,32.38
2018-08-22T10:07:53.596Z,32.31
2018-08-22T10:08:53.605Z,32.59
2018-08-22T10:09:53.575Z,32.73
2018-08-22T10:10:53.548Z,32.81
2018-08-22T10:11:53.570Z,32.86
2018-08-22T10:12:53.528Z,33.28
2018-08-22T10:13:53.592Z,33.55
2018-08-22T10:14:53.516Z,33.38
2018-08-22T10:16:01.269Z,33.19
2018-08-22T10:16:53.492Z,33.70
2018-08-22T10:17:53.482Z,34.32
2018-08-22T10:18:53.514Z,34.40
2018-08-22T10:19:53.462Z,34.43
2018-08-22T10:20:53.446Z,34.38
2018-08-22T10:21:53.432Z,34.37
2018-08-22T10:22:53.429Z,34.24
2018-08-22T10:23:53.454Z,34.10
2018-08-22T10:24:53.411Z,34.07
2018-08-22T10:25:53.409Z,33.95
2018-08-22T10:26:53.437Z,33.87
2018-08-22T10:27:53.378Z,33.39
2018-08-22T10:28:53.417Z,33.03
2018-08-22T10:29:53.371Z,33.08
2018-08-22T10:30:53.353Z,32.98
2018-08-22T10:31:53.365Z,32.68
2018-08-22T10:32:53.453Z,32.37
2018-08-22T10:33:53.383Z,32.49
2018-08-22T10:34:53.346Z,32.54
2018-08-22T10:35:53.320Z,32.23
2018-08-22T10:37:01.315Z,32.60
2018-08-22T10:37:53.289Z,32.72
2018-08-22T10:38:53.273Z,32.76
2018-08-22T10:39:53.307Z,32.79
2018-08-22T10:40:53.253Z,32.85
2018-08-22T10:41:53.245Z,33.47
2018-08-22T10:42:53.233Z,33.89
2018-08-22T10:43:53.227Z,34.47
2018-08-22T10:44:53.272Z,34.69
2018-08-22T10:45:53.247Z,34.71
2018-08-22T10:46:53.221Z,34.55
2018-08-22T10:47:53.207Z,34.02
2018-08-22T10:48:53.203Z,34.46
2018-08-22T10:49:53.214Z,34.44
2018-08-22T10:50:53.198Z,34.00
2018-08-22T10:51:53.158Z,34.03
2018-08-22T10:52:53.133Z,33.92
2018-08-22T10:53:53.171Z,33.75
2018-08-22T10:54:53.167Z,33.89
2018-08-22T10:55:53.109Z,33.82
2018-08-22T10:56:53.101Z,34.24
2018-08-22T10:57:53.076Z,34.56
2018-08-22T10:58:53.106Z,35.01
2018-08-22T10:59:53.067Z,35.04
2018-08-22T11:01:01.097Z,35.05
2018-08-22T11:01:53.046Z,35.54
2018-08-22T11:02:53.020Z,36.22
2018-08-22T11:03:53.007Z,36.31
2018-08-22T11:04:53.009Z,36.22
2018-08-22T11:05:53.028Z,36.44
2018-08-22T11:06:52.981Z,36.05
2018-08-22T11:07:52.981Z,35.84
2018-08-22T11:08:52.960Z,35.16
2018-08-22T11:09:52.959Z,35.13
2018-08-22T11:10:53.025Z,35.53
2018-08-22T11:11:52.973Z,35.68
2018-08-22T11:12:52.924Z,35.61
2018-08-22T11:13:52.940Z,35.42
2018-08-22T11:14:52.946Z,35.38
2018-08-22T11:15:53.081Z,35.13
2018-08-22T11:16:52.948Z,35.42
2018-08-22T11:17:52.992Z,35.97
2018-08-22T11:18:52.884Z,36.01
2018-08-22T11:19:52.878Z,36.16
2018-08-22T11:20:52.884Z,36.16
2018-08-22T11:21:52.892Z,36.05
2018-08-22T11:22:52.893Z,36.18
2018-08-22T11:23:52.824Z,35.97
2018-08-22T11:25:00.388Z,36.16
2018-08-22T11:25:52.790Z,36.73
2018-08-22T11:26:52.841Z,36.63
2018-08-22T11:27:52.798Z,36.66
2018-08-22T11:28:52.792Z,36.18
2018-08-22T11:29:52.777Z,35.82
2018-08-22T11:30:52.765Z,35.59
2018-08-22T11:31:52.806Z,35.52
2018-08-22T11:32:52.759Z,35.88
2018-08-22T11:33:52.736Z,36.06
2018-08-22T11:34:52.730Z,35.91
2018-08-22T11:35:52.723Z,35.68
2018-08-22T11:37:01.951Z,35.84
2018-08-22T11:37:52.725Z,35.93
2018-08-22T11:38:52.684Z,35.60
2018-08-22T11:40:02.004Z,35.32
2018-08-22T11:40:52.687Z,35.74
2018-08-22T11:41:52.658Z,36.48
2018-08-22T11:42:52.653Z,37.10
2018-08-22T11:43:52.638Z,37.43
2018-08-22T11:44:52.674Z,37.19
2018-08-22T11:45:52.648Z,37.15
2018-08-22T11:46:52.704Z,37.48
2018-08-22T11:47:52.615Z,37.91
2018-08-22T11:48:52.597Z,37.54
2018-08-22T11:49:52.623Z,36.54
2018-08-22T11:50:52.585Z,36.14
2018-08-22T11:51:52.564Z,35.88
2018-08-22T11:52:52.558Z,35.76
2018-08-22T11:53:52.524Z,35.75
2018-08-22T11:54:52.564Z,35.72
2018-08-22T11:55:52.512Z,35.57
2018-08-22T11:56:52.490Z,35.45
2018-08-22T11:57:52.482Z,35.03
2018-08-22T11:58:52.464Z,35.79
2018-08-22T11:59:52.524Z,36.75
2018-08-22T12:01:00.017Z,37.50
2018-08-22T12:01:52.514Z,38.10
2018-08-22T12:02:52.430Z,38.28
2018-08-22T12:03:52.421Z,38.12
2018-08-22T12:04:52.472Z,38.17
2018-08-22T12:05:52.460Z,38.20
2018-08-22T12:07:00.031Z,38.19
2018-08-22T12:07:52.380Z,37.38
2018-08-22T12:08:52.388Z,36.92
2018-08-22T12:09:52.414Z,36.45
2018-08-22T12:10:52.369Z,36.54
2018-08-22T12:11:52.354Z,36.08
2018-08-22T12:12:52.334Z,35.96
2018-08-22T12:13:52.321Z,35.76
2018-08-22T12:14:52.348Z,36.25
2018-08-22T12:15:52.299Z,36.96
2018-08-22T12:16:52.353Z,37.40
2018-08-22T12:17:52.282Z,37.72
2018-08-22T12:18:52.270Z,38.07
2018-08-22T12:19:52.254Z,38.16
2018-08-22T12:20:52.252Z,38.41
2018-08-22T12:22:01.611Z,38.10
2018-08-22T12:22:52.260Z,38.53
2018-08-22T12:23:52.250Z,38.88
2018-08-22T12:25:00.109Z,37.97
2018-08-22T12:25:52.219Z,38.07
2018-08-22T12:26:52.245Z,37.76
2018-08-22T12:28:02.683Z,37.60
2018-08-22T12:28:52.186Z,37.88
2018-08-22T12:29:52.175Z,37.88
2018-08-22T12:31:00.216Z,37.91
2018-08-22T12:31:52.150Z,37.64
2018-08-22T12:32:52.141Z,37.60
2018-08-22T12:33:52.171Z,37.53
2018-08-22T12:34:52.115Z,37.61
2018-08-22T12:35:52.105Z,37.57
2018-08-22T12:37:00.698Z,37.50
2018-08-22T12:37:52.223Z,37.58
2018-08-22T12:38:52.107Z,38.00
2018-08-22T12:39:59.753Z,37.75
2018-08-22T12:40:52.554Z,37.75
2018-08-22T12:41:52.074Z,37.78
2018-08-22T12:42:59.788Z,37.34
2018-08-22T12:43:52.035Z,36.99
2018-08-22T12:44:52.023Z,36.85
2018-08-22T12:45:52.011Z,36.53
2018-08-22T12:46:52.044Z,36.36
2018-08-22T12:47:51.993Z,36.45
2018-08-22T12:48:51.985Z,36.67
2018-08-22T12:49:52.051Z,36.26
2018-08-22T12:50:51.959Z,35.38
2018-08-22T12:51:52.097Z,35.10
2018-08-22T12:52:51.943Z,34.73
2018-08-22T12:53:51.939Z,35.23
2018-08-22T12:54:51.919Z,35.13
2018-08-22T12:55:51.931Z,35.61
2018-08-22T12:56:51.939Z,35.76
2018-08-22T12:57:52.081Z,36.57
2018-08-22T12:58:52.061Z,37.03
2018-08-22T12:59:52.133Z,37.53
2018-08-22T13:00:51.941Z,37.85
2018-08-22T13:01:52.316Z,38.32
2018-08-22T13:02:52.102Z,37.92
2018-08-22T13:03:52.031Z,37.98
2018-08-22T13:04:52.113Z,38.05
2018-08-22T13:05:52.073Z,37.94
2018-08-22T13:06:52.381Z,38.04
2018-08-22T13:07:52.360Z,38.07
2018-08-22T13:08:51.789Z,37.37
2018-08-22T13:09:52.070Z,37.38
2018-08-22T13:10:51.986Z,37.48
2018-08-22T13:11:52.096Z,37.83
2018-08-22T13:12:51.766Z,38.16
2018-08-22T13:13:51.815Z,37.97
2018-08-22T13:14:52.235Z,37.21
2018-08-22T13:15:52.359Z,37.34
2018-08-22T13:16:52.130Z,37.60
2018-08-22T13:17:51.883Z,37.26
2018-08-22T13:18:51.706Z,37.33
2018-08-22T13:19:51.849Z,37.54
2018-08-22T13:20:51.704Z,37.71
2018-08-22T13:21:51.819Z,38.05
2018-08-22T13:22:51.898Z,38.28
2018-08-22T13:23:52.023Z,37.90
2018-08-22T13:24:51.621Z,37.60
2018-08-22T13:25:52.267Z,37.43
2018-08-22T13:26:51.933Z,37.48
2018-08-22T13:27:51.811Z,37.92
2018-08-22T13:28:51.904Z,38.10
2018-08-22T13:29:51.885Z,38.19